Time;durP1;ratioP1;P1;durP2;ratioP2;P2;SDS_P1;SDS_P2;PMS_P1;PMS_P2;Temp;Humidity;BMP_temperature;BMP_pressure;BME280_temperature;BME280_humidity;BME280_pressure;Samples;Min_cycle;Max_cycle;Signal;HPM_P1;HPM_P2
2023/04/07 00:04:11;;;;;;;34.20;21.50;;;;;;;6.41;100.00;101440.88;10336222;28;20072;-67
2023/04/07 00:09:12;;;;;;;31.15;21.08;;;;;;;6.30;100.00;101423.19;10319330;28;20042;-71
2023/04/07 00:14:12;;;;;;;32.78;19.80;;;;;;;6.30;100.00;101427.81;10369713;28;20033;-71
2023/04/07 00:19:13;;;;;;;32.40;20.13;;;;;;;6.33;100.00;101430.16;10320421;28;20076;-70
2023/04/07 00:24:13;;;;;;;33.55;20.42;;;;;;;6.33;100.00;101430.16;10336218;28;20034;-71
2023/04/07 00:29:14;;;;;;;30.95;20.52;;;;;;;6.36;100.00;101440.66;10343599;28;20041;-70
2023/04/07 00:34:15;;;;;;;32.03;19.77;;;;;;;6.04;100.00;101391.25;10358293;28;20034;-71
2023/04/07 00:39:15;;;;;;;32.35;19.70;;;;;;;6.24;100.00;101418.56;10358324;28;20064;-71
2023/04/07 00:44:16;;;;;;;28.48;18.00;;;;;;;6.29;100.00;101437.09;10365159;28;20383;-71
2023/04/07 00:49:19;;;;;;;30.02;19.30;;;;;;;6.21;100.00;101422.56;10366717;28;20084;-71
2023/04/07 00:54:21;;;;;;;30.05;18.95;;;;;;;6.29;100.00;101428.88;10380683;28;20034;-71
2023/04/07 00:59:21;;;;;;;31.08;18.58;;;;;;;6.29;100.00;101429.72;10340899;28;20038;-72
2023/04/07 01:04:26;;;;;;;28.67;18.95;;;;;;;6.32;100.00;101428.44;10325412;28;20092;-71
2023/04/07 01:09:31;;;;;;;29.95;19.77;;;;;;;6.24;100.00;101427.63;10340684;28;20064;-71
2023/04/07 01:14:37;;;;;;;30.10;18.48;;;;;;;6.19;100.00;101400.06;10365845;28;20038;-71
2023/04/07 01:20:00;;;;;;;31.02;18.27;;;;;;;6.34;100.00;101423.59;10399491;28;20115;-72
2023/04/07 01:25:38;;;;;;;26.52;17.60;;;;;;;6.33;100.00;101424.66;10381582;28;20127;-71
2023/04/07 01:30:40;;;;;;;29.15;18.35;;;;;;;6.27;100.00;101420.88;10394677;28;20124;-72
2023/04/07 01:35:41;;;;;;;26.90;18.65;;;;;;;6.18;100.00;101423.00;10380842;28;20053;-71
2023/04/07 01:40:41;;;;;;;30.05;20.05;;;;;;;6.16;100.00;101422.38;10363944;28;20056;-71
2023/04/07 01:45:42;;;;;;;30.10;19.60;;;;;;;6.21;100.00;101429.94;10353246;28;20114;-71
2023/04/07 01:50:43;;;;;;;30.00;19.83;;;;;;;6.20;100.00;101433.72;10355782;28;20061;-72
2023/04/07 01:55:43;;;;;;;28.30;18.63;;;;;;;6.25;100.00;101436.66;10323794;28;20057;-72
2023/04/07 02:00:44;;;;;;;30.90;18.73;;;;;;;6.22;100.00;101435.19;10339665;28;20026;-72
2023/04/07 02:05:44;;;;;;;30.00;18.55;;;;;;;6.25;100.00;101440.22;10339630;28;20054;-71
2023/04/07 02:10:46;;;;;;;28.25;18.85;;;;;;;6.21;100.00;101430.78;10355961;28;20048;-72
2023/04/07 02:15:47;;;;;;;33.25;21.23;;;;;;;6.25;100.00;101434.75;10339026;28;20034;-71
2023/04/07 02:20:47;;;;;;;32.05;20.00;;;;;;;6.26;100.00;101435.59;10338460;28;20064;-73
2023/04/07 02:25:48;;;;;;;32.83;21.13;;;;;;;6.26;100.00;101427.41;10338887;28;20052;-72
2023/04/07 02:30:48;;;;;;;35.08;22.08;;;;;;;6.28;100.00;101446.34;10328653;28;20038;-73
2023/04/07 02:35:49;;;;;;;34.67;21.67;;;;;;;6.15;100.00;101423.41;10371033;28;20057;-73
2023/04/07 02:40:49;;;;;;;36.33;21.42;;;;;;;6.27;100.00;101450.97;10340177;28;20042;-73
2023/04/07 02:45:50;;;;;;;37.75;23.05;;;;;;;5.90;100.00;101395.03;10353624;28;20046;-74
2023/04/07 02:50:50;;;;;;;39.83;25.00;;;;;;;6.18;100.00;101450.34;10353707;28;20109;-73
2023/04/07 02:55:51;;;;;;;40.53;23.67;;;;;;;6.21;100.00;101454.53;10337928;28;20033;-73
2023/04/07 03:00:52;;;;;;;36.70;22.70;;;;;;;6.19;100.00;101441.06;10332100;28;20041;-73
2023/04/07 03:05:52;;;;;;;37.35;24.13;;;;;;;6.17;100.00;101451.38;10319684;28;20046;-73
2023/04/07 03:10:53;;;;;;;35.28;22.85;;;;;;;6.10;100.00;101445.09;10321516;28;20037;-73
2023/04/07 03:15:53;;;;;;;36.88;23.85;;;;;;;6.20;100.00;101459.19;10337170;28;20064;-68
2023/04/07 03:20:55;;;;;;;35.38;22.80;;;;;;;6.12;100.00;101453.94;10352580;28;20061;-73
2023/04/07 03:25:56;;;;;;;36.58;22.75;;;;;;;6.03;100.00;101441.50;10353144;28;20060;-73
2023/04/07 03:30:57;;;;;;;36.70;23.23;;;;;;;6.12;100.00;101462.13;10336610;28;20045;-74
2023/04/07 03:35:57;;;;;;;38.08;24.45;;;;;;;6.11;100.00;101454.97;10336867;28;20041;-73
2023/04/07 03:40:58;;;;;;;40.25;24.15;;;;;;;6.11;100.00;101468.63;10337451;28;20489;-73
2023/04/07 03:45:58;;;;;;;40.67;24.25;;;;;;;6.16;100.00;101466.13;10364711;28;20041;-74
2023/04/07 03:51:00;;;;;;;40.47;23.63;;;;;;;6.12;100.00;101464.84;10374795;28;20026;-73
2023/04/07 03:56:01;;;;;;;41.95;25.20;;;;;;;5.75;100.00;101408.91;10375460;28;20049;-73
2023/04/07 04:01:01;;;;;;;40.70;24.38;;;;;;;6.07;100.00;101467.38;10360011;28;20030;-74
2023/04/07 04:06:02;;;;;;;43.47;24.98;;;;;;;5.99;100.00;101471.13;10393304;28;20068;-69
2023/04/07 04:11:03;;;;;;;40.72;26.00;;;;;;;5.97;100.00;101475.97;10377853;28;22156;-73
2023/04/07 04:16:04;;;;;;;41.08;26.70;;;;;;;6.02;100.00;101486.31;10362204;28;20040;-74
2023/04/07 04:21:05;;;;;;;41.08;26.27;;;;;;;5.97;100.00;101489.63;10386124;28;20060;-73
2023/04/07 04:26:05;;;;;;;44.75;26.23;;;;;;;5.90;100.00;101494.25;10341865;28;20460;-73
2023/04/07 04:31:06;;;;;;;47.85;28.20;;;;;;;5.82;100.00;101476.13;10326222;28;20053;-73
2023/04/07 04:36:06;;;;;;;52.65;30.17;;;;;;;5.92;100.00;101496.78;10342579;28;20045;-73
2023/04/07 04:41:07;;;;;;;46.28;27.98;;;;;;;5.82;100.00;101489.81;10341183;28;20190;-68
2023/04/07 04:46:07;;;;;;;42.85;27.15;;;;;;;5.87;100.00;101502.88;10355064;28;20050;-74
2023/04/07 04:51:08;;;;;;;49.20;28.48;;;;;;;5.85;100.00;101514.00;10357016;28;20053;-74
2023/04/07 04:56:08;;;;;;;50.30;28.90;;;;;;;5.83;100.00;101510.63;10356729;28;20049;-74
2023/04/07 05:01:09;;;;;;;51.03;28.52;;;;;;;5.74;100.00;101500.94;10356078;28;20076;-74
2023/04/07 05:06:10;;;;;;;50.85;29.58;;;;;;;5.81;100.00;101526.41;10376356;28;20050;-73
2023/04/07 05:11:11;;;;;;;51.83;30.70;;;;;;;5.83;100.00;101524.28;10357806;28;20060;-73
2023/04/07 05:16:11;;;;;;;56.42;31.20;;;;;;;5.81;100.00;101529.13;10357363;28;20422;-74
2023/04/07 05:21:11;;;;;;;51.28;30.15;;;;;;;5.81;100.00;101531.84;10325351;28;20034;-74
2023/04/07 05:26:12;;;;;;;52.28;31.05;;;;;;;5.78;100.00;101525.94;10355207;28;20037;-74
2023/04/07 05:31:13;;;;;;;57.45;31.77;;;;;;;5.88;100.00;101537.34;10340578;28;20033;-74
2023/04/07 05:36:13;;;;;;;58.38;33.33;;;;;;;5.93;100.00;101548.47;10325991;28;20041;-73
2023/04/07 05:41:14;;;;;;;51.92;32.20;;;;;;;5.96;100.00;101541.81;10341490;28;20398;-74
2023/04/07 05:46:15;;;;;;;58.60;32.65;;;;;;;5.98;100.00;101539.69;10373128;28;20049;-69
2023/04/07 05:51:15;;;;;;;53.53;32.65;;;;;;;6.06;100.00;101550.44;10356586;28;20030;-74
2023/04/07 05:56:16;;;;;;;54.20;32.10;;;;;;;6.21;100.00;101552.97;10354175;28;20058;-73
2023/04/07 06:01:16;;;;;;;52.42;31.85;;;;;;;6.20;100.00;101546.69;10348979;28;20172;-74
2023/04/07 06:06:17;;;;;;;58.50;32.72;;;;;;;6.38;100.00;101569.81;10381003;28;20034;-73
2023/04/07 06:11:17;;;;;;;46.85;29.40;;;;;;;6.37;100.00;101555.31;10413740;28;20041;-74
2023/04/07 06:16:18;;;;;;;48.60;29.33;;;;;;;6.46;100.00;101559.50;10379075;28;20041;-73
2023/04/07 06:21:18;;;;;;;43.83;27.75;;;;;;;6.53;100.00;101564.13;10361971;28;20073;-73
2023/04/07 06:26:20;;;;;;;42.30;25.92;;;;;;;6.70;100.00;101580.97;10322357;28;20050;-71
2023/04/07 06:31:21;;;;;;;45.10;28.02;;;;;;;6.66;100.00;101573.19;10339109;28;20081;-74
2023/04/07 06:36:22;;;;;;;44.38;28.92;;;;;;;6.85;100.00;101584.34;10323276;28;20061;-73
2023/04/07 06:41:22;;;;;;;44.65;28.42;;;;;;;6.91;100.00;101586.22;10337297;28;20034;-74
2023/04/07 06:46:25;;;;;;;50.35;29.65;;;;;;;7.10;100.00;101600.09;10336965;28;20041;-75
2023/04/07 06:51:25;;;;;;;49.00;30.60;;;;;;;7.18;100.00;101594.38;10399731;28;20040;-75
2023/04/07 06:56:26;;;;;;;47.83;30.23;;;;;;;7.33;100.00;101605.94;10382346;28;20034;-74
2023/04/07 07:01:27;;;;;;;42.15;27.50;;;;;;;7.37;100.00;101592.66;10338003;28;20034;-74
2023/04/07 07:06:27;;;;;;;44.28;27.77;;;;;;;7.72;100.00;101612.34;10409067;28;20041;-74
2023/04/07 07:11:28;;;;;;;46.97;28.58;;;;;;;8.01;100.00;101623.81;10344373;28;20050;-75
2023/04/07 07:16:28;;;;;;;42.85;28.13;;;;;;;8.11;100.00;101617.84;10391159;28;20094;-74
2023/04/07 07:21:30;;;;;;;39.78;25.17;;;;;;;8.03;100.00;101570.41;10366594;28;20046;-74
2023/04/07 07:26:30;;;;;;;42.13;26.02;;;;;;;8.32;100.00;101612.00;10385285;28;20402;-73
2023/04/07 07:31:31;;;;;;;37.75;26.42;;;;;;;8.38;100.00;101635.81;10389613;28;20034;-73
2023/04/07 07:36:31;;;;;;;36.42;25.60;;;;;;;8.40;100.00;101641.09;10357177;28;20045;-73
2023/04/07 07:41:32;;;;;;;37.03;23.73;;;;;;;8.52;100.00;101633.88;10370575;28;20040;-73
2023/04/07 07:46:32;;;;;;;39.15;25.80;;;;;;;8.51;100.00;101629.41;10389267;28;20048;-72
2023/04/07 07:51:33;;;;;;;32.38;23.52;;;;;;;8.69;100.00;101634.97;10355225;28;20065;-67
2023/04/07 07:56:34;;;;;;;31.67;20.45;;;;;;;8.76;100.00;101642.34;10366211;28;20026;-72
2023/04/07 08:01:35;;;;;;;29.95;20.17;;;;;;;8.94;100.00;101653.38;10371562;28;20037;-70
2023/04/07 08:06:36;;;;;;;27.70;18.35;;;;;;;8.96;100.00;101642.16;10401398;28;20052;-72
2023/04/07 08:11:37;;;;;;;26.30;17.20;;;;;;;9.12;100.00;101655.34;10351162;28;20377;-72
2023/04/07 08:16:37;;;;;;;22.17;16.15;;;;;;;9.19;100.00;101663.50;10383228;28;20049;-73
2023/04/07 08:21:38;;;;;;;23.75;16.48;;;;;;;9.09;100.00;101656.63;10402742;28;20521;-73
2023/04/07 08:26:38;;;;;;;21.23;14.60;;;;;;;9.19;100.00;101658.00;10343597;28;20472;-73
2023/04/07 08:31:40;;;;;;;25.42;16.25;;;;;;;9.18;100.00;101615.97;10365938;28;20056;-70
2023/04/07 08:36:40;;;;;;;23.70;13.70;;;;;;;9.80;100.00;101657.16;10369636;28;20052;-69
2023/04/07 08:41:41;;;;;;;19.05;13.13;;;;;;;9.82;100.00;101659.69;10334736;28;20049;-72
2023/04/07 08:46:41;;;;;;;20.30;13.45;;;;;;;9.76;100.00;101657.84;10338951;28;20493;-72
2023/04/07 08:51:48;;;;;;;20.38;13.90;;;;;;;9.89;100.00;101675.00;10394389;28;20038;-72
2023/04/07 08:56:49;;;;;;;21.25;12.80;;;;;;;10.09;100.00;101676.69;10380209;28;20034;-73
2023/04/07 09:01:49;;;;;;;17.90;12.93;;;;;;;10.11;100.00;101669.03;10381662;28;20549;-73
2023/04/07 09:06:50;;;;;;;18.20;13.07;;;;;;;10.11;100.00;101669.03;10343758;28;20052;-72
2023/04/07 09:11:51;;;;;;;18.15;11.82;;;;;;;10.37;100.00;101678.84;10376580;28;20042;-72
2023/04/07 09:16:53;;;;;;;16.02;11.57;;;;;;;10.76;100.00;101682.09;10374962;28;20041;-73
2023/04/07 09:21:54;;;;;;;15.55;11.15;;;;;;;10.95;100.00;101669.06;10386312;28;20487;-73
2023/04/07 09:27:16;;;;;;;15.10;10.88;;;;;;;10.81;100.00;101673.13;10358671;28;20048;-72
2023/04/07 09:32:43;;;;;;;17.48;11.88;;;;;;;10.78;100.00;101685.47;10376627;28;20545;-73
2023/04/07 09:37:46;;;;;;;16.08;10.73;;;;;;;10.86;100.00;101679.59;10362148;28;20041;-73
2023/04/07 09:42:47;;;;;;;14.20;9.82;;;;;;;10.97;100.00;101668.84;10376383;28;20041;-72
2023/04/07 09:47:47;;;;;;;10.70;8.27;;;;;;;11.06;100.00;101662.75;10371182;28;20046;-73
2023/04/07 09:52:50;;;;;;;14.85;9.50;;;;;;;11.43;100.00;101681.81;10342510;28;20288;-73
2023/04/07 09:57:51;;;;;;;13.93;9.38;;;;;;;11.89;100.00;101659.97;10412363;28;20064;-71
2023/04/07 10:02:51;;;;;;;9.40;7.28;;;;;;;12.09;100.00;101665.03;10376041;28;20123;-70
2023/04/07 10:07:53;;;;;;;11.25;8.25;;;;;;;12.06;100.00;101668.31;10373573;28;20076;-67
2023/04/07 10:12:53;;;;;;;10.73;7.88;;;;;;;11.85;100.00;101672.53;10360097;28;20139;-71
2023/04/07 10:17:55;;;;;;;8.90;7.07;;;;;;;11.61;100.00;101656.00;10365641;28;20083;-71
2023/04/07 10:22:56;;;;;;;8.57;7.00;;;;;;;12.06;100.00;101677.41;10374776;28;20095;-71
2023/04/07 10:28:03;;;;;;;9.18;7.10;;;;;;;12.48;100.00;101657.78;10357918;28;20487;-72
2023/04/07 10:33:04;;;;;;;9.77;7.57;;;;;;;12.59;100.00;101660.75;10344784;28;20021;-72
2023/04/07 10:38:12;;;;;;;9.00;6.90;;;;;;;12.81;100.00;101674.69;10341128;28;20045;-71
2023/04/07 10:43:13;;;;;;;12.35;6.78;;;;;;;13.06;100.00;101655.78;10351277;28;20046;-71
2023/04/07 10:48:15;;;;;;;8.82;6.13;;;;;;;12.30;100.00;101647.81;10371387;28;20049;-71
2023/04/07 10:53:16;;;;;;;8.88;6.65;;;;;;;12.46;100.00;101657.22;10374344;28;20052;-70
2023/04/07 10:58:23;;;;;;;9.82;7.28;;;;;;;12.74;100.00;101661.03;10355781;28;20048;-71
2023/04/07 11:03:23;;;;;;;13.85;8.10;;;;;;;13.11;100.00;101630.97;10383380;28;20030;-72
2023/04/07 11:08:36;;;;;;;9.90;6.85;;;;;;;14.15;100.00;101658.94;10336926;28;20076;-71
2023/04/07 11:13:45;;;;;;;10.00;7.38;;;;;;;14.51;100.00;101662.94;10356554;28;20042;-71
2023/04/07 11:18:46;;;;;;;11.73;7.97;;;;;;;14.94;100.00;101660.31;10374051;28;20034;-71
2023/04/07 11:23:47;;;;;;;9.32;7.85;;;;;;;14.46;97.36;101656.50;10372589;28;20046;-70
2023/04/07 11:28:53;;;;;;;12.02;7.90;;;;;;;13.99;95.91;101652.38;10341922;28;20050;-71
2023/04/07 11:33:55;;;;;;;11.23;8.00;;;;;;;13.91;96.45;101664.75;10355246;28;20030;-70
2023/04/07 11:38:56;;;;;;;12.18;8.25;;;;;;;14.22;95.07;101667.91;10339738;28;20025;-70
2023/04/07 11:44:25;;;;;;;10.85;8.27;;;;;;;13.70;92.66;101679.41;10364229;28;20041;-71
2023/04/07 11:49:30;;;;;;;11.10;7.78;;;;;;;13.37;93.09;101633.28;10354105;28;20128;-70
2023/04/07 11:54:48;;;;;;;12.55;8.30;;;;;;;14.60;95.98;101674.41;10340793;28;20026;-71
2023/04/07 11:59:49;;;;;;;12.10;8.70;;;;;;;15.16;87.08;101656.59;10341556;28;20045;-71
2023/04/07 12:04:56;;;;;;;10.07;8.23;;;;;;;14.91;85.94;101666.38;10371628;28;20030;-70
2023/04/07 12:09:57;;;;;;;13.18;8.40;;;;;;;14.55;85.40;101677.09;10371369;28;20425;-70
2023/04/07 12:14:57;;;;;;;10.43;8.45;;;;;;;14.42;85.73;101683.88;10370980;28;20125;-70
2023/04/07 12:19:58;;;;;;;13.88;8.18;;;;;;;14.43;86.95;101663.41;10351245;28;20053;-70
2023/04/07 12:24:58;;;;;;;9.80;8.02;;;;;;;14.09;86.49;101668.28;10409788;28;20038;-69
2023/04/07 12:29:59;;;;;;;9.20;7.93;;;;;;;14.16;86.59;101699.41;10392130;28;20061;-70
2023/04/07 12:34:59;;;;;;;12.10;8.52;;;;;;;14.71;84.76;101690.03;10391630;28;20033;-70
2023/04/07 12:40:00;;;;;;;12.73;8.30;;;;;;;15.45;83.26;101674.56;10372211;28;20041;-70
2023/04/07 12:45:01;;;;;;;12.77;8.65;;;;;;;15.91;82.35;101693.44;10377196;28;22812;-70
2023/04/07 12:50:02;;;;;;;13.27;9.50;;;;;;;15.41;81.88;101700.34;10342550;28;20041;-69
2023/04/07 12:55:03;;;;;;;10.60;8.32;;;;;;;14.88;82.92;101702.94;10340619;28;20041;-69
2023/04/07 13:00:04;;;;;;;12.57;8.88;;;;;;;14.55;80.98;101702.03;10341528;28;20034;-69
2023/04/07 13:05:06;;;;;;;11.02;9.20;;;;;;;14.50;82.52;101704.75;10339690;28;20108;-70
2023/04/07 13:10:08;;;;;;;13.35;9.57;;;;;;;14.61;83.11;101714.88;10294572;28;20107;-69
2023/04/07 13:15:09;;;;;;;11.48;9.15;;;;;;;14.33;80.96;101700.13;10336872;28;20045;-70
2023/04/07 13:20:10;;;;;;;18.27;11.18;;;;;;;14.39;79.85;101700.22;10333441;28;20049;-71
2023/04/07 13:25:11;;;;;;;13.23;9.15;;;;;;;16.21;74.83;101664.97;10368276;28;20092;-69
2023/04/07 13:30:12;;;;;;;16.70;9.55;;;;;;;17.91;68.88;101663.81;10364258;28;20096;-72
2023/04/07 13:35:14;;;;;;;14.80;10.77;;;;;;;19.42;67.63;101679.28;10359365;28;20038;-71
2023/04/07 13:40:15;;;;;;;11.18;9.50;;;;;;;20.84;65.04;101672.19;10339449;28;20037;-71
2023/04/07 13:45:15;;;;;;;10.90;9.80;;;;;;;20.71;56.72;101660.63;10326783;28;20065;-70
2023/04/07 13:50:16;;;;;;;11.82;9.75;;;;;;;21.15;55.02;101658.50;10338677;28;20037;-70
2023/04/07 13:55:19;;;;;;;20.77;11.68;;;;;;;21.34;52.06;101661.25;10349590;28;20045;-70
2023/04/07 14:00:19;;;;;;;15.45;10.70;;;;;;;21.45;51.07;101651.53;10356701;28;20041;-69
2023/04/07 14:05:20;;;;;;;15.15;11.15;;;;;;;21.03;48.92;101639.38;10391725;28;20104;-69
2023/04/07 14:10:20;;;;;;;11.63;10.35;;;;;;;21.24;49.51;101667.03;10359622;28;20029;-70
2023/04/07 14:15:21;;;;;;;16.20;10.10;;;;;;;21.74;49.92;101654.03;10351369;28;20115;-69
2023/04/07 14:20:21;;;;;;;14.75;10.57;;;;;;;21.53;46.26;101648.00;10361617;28;20029;-71
2023/04/07 14:25:22;;;;;;;14.85;10.55;;;;;;;20.91;47.56;101647.44;10347433;28;20033;-72
2023/04/07 14:30:22;;;;;;;13.18;9.95;;;;;;;20.51;47.30;101660.91;10411003;28;20546;-71
2023/04/07 14:35:23;;;;;;;11.50;9.48;;;;;;;20.71;44.56;101646.63;10338162;28;20068;-71
2023/04/07 14:40:23;;;;;;;12.82;10.32;;;;;;;20.45;45.53;101657.34;10355656;28;20044;-71
2023/04/07 14:45:24;;;;;;;11.95;9.23;;;;;;;19.65;48.22;101677.63;10337424;28;20034;-71
2023/04/07 14:50:24;;;;;;;13.73;8.75;;;;;;;20.00;46.67;101662.44;10336938;28;20030;-71
2023/04/07 14:55:25;;;;;;;14.38;9.60;;;;;;;20.30;45.05;101665.97;10353599;28;20034;-71
2023/04/07 15:00:27;;;;;;;14.00;10.02;;;;;;;20.67;45.56;101676.38;10335452;28;20062;-71
2023/04/07 15:05:31;;;;;;;13.38;10.13;;;;;;;20.94;43.84;101666.44;10370506;28;20053;-71
2023/04/07 15:10:34;;;;;;;12.52;9.25;;;;;;;21.27;43.60;101672.00;10340420;28;20033;-70
2023/04/07 15:15:34;;;;;;;12.50;8.85;;;;;;;21.43;44.20;101681.81;10375497;28;20121;-71
2023/04/07 15:20:35;;;;;;;21.23;10.07;;;;;;;21.10;42.43;101670.59;10376016;28;20091;-70
2023/04/07 15:25:35;;;;;;;13.43;9.15;;;;;;;21.52;44.01;101685.59;10340010;28;20045;-71
2023/04/07 15:30:36;;;;;;;11.10;8.90;;;;;;;21.74;43.07;101693.25;10319645;28;20034;-70
2023/04/07 15:35:36;;;;;;;11.27;8.63;;;;;;;21.51;42.43;101683.91;10320689;28;20065;-69
2023/04/07 15:40:37;;;;;;;11.85;9.52;;;;;;;21.71;41.91;101687.47;10348445;28;20061;-70
2023/04/07 15:45:41;;;;;;;13.25;8.70;;;;;;;21.83;42.91;101689.75;10335075;28;20042;-70
2023/04/07 15:50:42;;;;;;;12.60;8.80;;;;;;;21.86;41.03;101684.34;10351979;28;20045;-70
2023/04/07 15:55:43;;;;;;;13.90;7.90;;;;;;;21.31;42.19;101684.25;10352064;28;20042;-70
2023/04/07 16:00:43;;;;;;;9.45;7.25;;;;;;;21.74;43.11;101703.66;10376492;28;20397;-70
2023/04/07 16:05:44;;;;;;;11.75;8.38;;;;;;;20.61;42.32;101704.69;10375714;28;20076;-70
2023/04/07 16:10:44;;;;;;;9.85;7.35;;;;;;;19.12;44.97;101709.13;10349947;28;20053;-70
2023/04/07 16:15:45;;;;;;;11.35;7.95;;;;;;;18.66;44.90;101724.22;10415452;28;20452;-70
2023/04/07 16:20:45;;;;;;;9.38;7.10;;;;;;;19.21;44.17;101715.75;10354909;28;20022;-71
2023/04/07 16:25:46;;;;;;;12.75;7.57;;;;;;;19.84;44.00;101726.06;10384224;28;21477;-70
2023/04/07 16:30:46;;;;;;;11.50;7.28;;;;;;;19.18;46.19;101741.44;10398960;28;20030;-70
2023/04/07 16:35:47;;;;;;;10.88;7.22;;;;;;;17.83;47.08;101739.63;10417243;28;20041;-70
2023/04/07 16:40:47;;;;;;;9.32;6.47;;;;;;;16.82;49.67;101764.38;10382691;28;20076;-69
2023/04/07 16:45:51;;;;;;;9.20;7.05;;;;;;;16.78;48.15;101752.09;10398476;28;20037;-70
2023/04/07 16:50:51;;;;;;;13.73;7.00;;;;;;;16.67;49.13;101772.66;10365813;28;20033;-70
2023/04/07 16:55:52;;;;;;;10.00;7.57;;;;;;;15.71;51.04;101788.53;10366545;28;20039;-70
2023/04/07 17:00:52;;;;;;;9.13;6.82;;;;;;;14.94;52.48;101790.63;10355042;28;20473;-70
2023/04/07 17:05:53;;;;;;;9.25;6.75;;;;;;;14.21;53.87;101799.16;10398427;28;20535;-70
2023/04/07 17:10:53;;;;;;;10.32;6.35;;;;;;;13.80;56.29;101815.16;10398149;28;20044;-67
2023/04/07 17:15:54;;;;;;;10.75;7.72;;;;;;;13.50;57.53;101832.94;10397459;28;20041;-69
2023/04/07 17:20:54;;;;;;;9.80;6.53;;;;;;;13.13;59.82;101857.41;10375076;28;20044;-69
2023/04/07 17:25:55;;;;;;;9.13;5.80;;;;;;;12.66;60.41;101858.41;10380262;28;20036;-70
2023/04/07 17:30:57;;;;;;;11.02;6.10;;;;;;;12.29;61.26;101878.06;10377481;28;20037;-69
2023/04/07 17:36:00;;;;;;;10.88;6.28;;;;;;;11.93;63.46;101878.28;10362542;28;20083;-69
2023/04/07 17:41:01;;;;;;;10.45;6.65;;;;;;;11.64;66.10;101900.19;10380502;28;20095;-67
2023/04/07 17:46:03;;;;;;;11.70;6.60;;;;;;;11.38;65.76;101910.53;10393820;28;20572;-68
2023/04/07 17:51:03;;;;;;;9.43;6.47;;;;;;;11.18;68.53;101926.50;10396569;28;20029;-69
2023/04/07 17:56:04;;;;;;;9.43;6.25;;;;;;;10.93;70.47;101934.88;10353968;28;20042;-69
2023/04/07 18:01:09;;;;;;;10.95;6.10;;;;;;;10.64;72.90;101940.91;10371161;28;20036;-68
2023/04/07 18:06:14;;;;;;;9.57;5.80;;;;;;;10.42;71.56;101950.72;10380672;28;20114;-69
2023/04/07 18:11:15;;;;;;;13.13;6.38;;;;;;;10.12;71.95;101951.38;10413455;28;20045;-69
2023/04/07 18:16:18;;;;;;;12.18;6.00;;;;;;;9.73;73.06;101939.59;10362301;28;20033;-69
2023/04/07 18:21:19;;;;;;;9.52;5.75;;;;;;;9.53;73.93;101959.00;10378591;28;20034;-69
2023/04/07 18:26:20;;;;;;;8.93;5.85;;;;;;;9.14;74.50;101932.59;10377861;28;20291;-67
2023/04/07 18:31:21;;;;;;;8.48;6.32;;;;;;;9.19;76.94;101984.97;10367379;28;20037;-77
2023/04/07 18:36:24;;;;;;;11.40;6.20;;;;;;;9.04;78.09;101994.31;10413457;28;20084;-77
2023/04/07 18:41:24;;;;;;;9.77;6.53;;;;;;;8.90;79.11;102006.41;10397943;28;20045;-77
2023/04/07 18:46:26;;;;;;;9.95;7.10;;;;;;;8.75;81.85;102023.13;10380141;28;20038;-77
2023/04/07 18:51:27;;;;;;;12.35;6.65;;;;;;;8.59;83.09;102034.56;10389411;28;20238;-78
2023/04/07 18:56:29;;;;;;;8.23;5.50;;;;;;;8.34;85.69;102039.81;10382883;28;20099;-78
2023/04/07 19:01:30;;;;;;;8.73;6.53;;;;;;;8.24;87.13;102054.78;10396190;28;20603;-77
2023/04/07 19:06:30;;;;;;;9.88;6.15;;;;;;;8.05;88.14;102052.88;10411939;28;20137;-76
2023/04/07 19:11:31;;;;;;;13.25;7.18;;;;;;;8.01;89.34;102081.78;10368688;28;20052;-77
2023/04/07 19:16:33;;;;;;;11.80;6.00;;;;;;;7.87;91.50;102080.88;10401750;28;20139;-77
2023/04/07 19:21:33;;;;;;;11.57;6.88;;;;;;;7.44;92.77;102038.19;10386147;28;20041;-77
2023/04/07 19:26:34;;;;;;;8.38;5.80;;;;;;;7.65;94.76;102104.88;10363551;28;20037;-76
2023/04/07 19:31:34;;;;;;;9.32;6.43;;;;;;;7.50;95.49;102106.91;10395155;28;20053;-77
2023/04/07 19:36:35;;;;;;;12.88;6.20;;;;;;;7.31;97.20;102092.88;10410351;28;20045;-77
2023/04/07 19:41:35;;;;;;;10.38;5.90;;;;;;;7.29;99.11;102116.91;10409830;28;20053;-78
2023/04/07 19:46:36;;;;;;;9.27;5.68;;;;;;;7.08;99.81;102104.97;10376384;28;20049;-77
2023/04/07 19:51:36;;;;;;;8.15;5.20;;;;;;;7.07;100.00;102110.69;10376900;28;20490;-77
2023/04/07 19:56:37;;;;;;;9.45;6.38;;;;;;;6.82;100.00;102113.88;10374333;28;20056;-77
2023/04/07 20:01:37;;;;;;;9.02;5.95;;;;;;;6.83;100.00;102133.88;10395606;28;20092;-78
2023/04/07 20:06:39;;;;;;;7.25;5.50;;;;;;;6.65;100.00;102131.63;10358482;28;20049;-78
2023/04/07 20:11:39;;;;;;;7.65;5.72;;;;;;;6.43;100.00;102112.50;10339818;28;20034;-77
2023/04/07 20:16:40;;;;;;;10.93;5.95;;;;;;;6.53;100.00;102134.06;10351547;28;20058;-77
2023/04/07 20:21:40;;;;;;;7.50;5.05;;;;;;;6.42;100.00;102153.72;10349219;28;20405;-77
2023/04/07 20:26:41;;;;;;;8.13;5.15;;;;;;;6.22;100.00;102145.28;10363469;28;20083;-76
2023/04/07 20:31:42;;;;;;;9.65;5.40;;;;;;;6.09;100.00;102147.91;10368849;28;20038;-77
2023/04/07 20:36:43;;;;;;;9.40;4.97;;;;;;;5.99;100.00;102168.19;10351473;28;20033;-77
2023/04/07 20:41:44;;;;;;;8.32;5.00;;;;;;;5.90;100.00;102176.66;10358182;28;20042;-77
2023/04/07 20:46:47;;;;;;;7.10;4.93;;;;;;;5.77;100.00;102180.94;10373599;28;20065;-76
2023/04/07 20:51:48;;;;;;;7.18;4.40;;;;;;;5.56;100.00;102175.38;10350754;28;20049;-77
2023/04/07 20:56:48;;;;;;;7.60;4.35;;;;;;;5.53;100.00;102184.81;10364614;28;20045;-77
2023/04/07 21:01:49;;;;;;;7.50;4.50;;;;;;;5.52;100.00;102190.44;10365667;28;20057;-77
2023/04/07 21:06:49;;;;;;;8.18;4.55;;;;;;;5.29;100.00;102165.97;10369494;28;20048;-77
2023/04/07 21:11:50;;;;;;;8.18;4.32;;;;;;;5.33;100.00;102184.50;10372412;28;20046;-78
2023/04/07 21:16:51;;;;;;;8.60;4.75;;;;;;;5.31;100.00;102202.13;10356083;28;20054;-77
2023/04/07 21:21:51;;;;;;;5.88;3.70;;;;;;;5.19;100.00;102197.13;10356143;28;20030;-78
2023/04/07 21:26:52;;;;;;;7.57;4.68;;;;;;;4.76;100.00;102141.44;10372695;28;20045;-78
2023/04/07 21:31:52;;;;;;;8.20;4.07;;;;;;;5.09;100.00;102214.81;10367119;28;20102;-77
2023/04/07 21:36:53;;;;;;;7.22;3.90;;;;;;;4.99;100.00;102209.59;10387318;28;20057;-78
2023/04/07 21:41:53;;;;;;;6.25;4.47;;;;;;;4.88;100.00;102210.91;10372270;28;20383;-78
2023/04/07 21:46:54;;;;;;;7.80;4.82;;;;;;;4.72;100.00;102200.13;10354720;28;20520;-78
2023/04/07 21:51:54;;;;;;;8.70;4.82;;;;;;;4.73;100.00;102219.00;10372895;28;20045;-78
2023/04/07 21:56:56;;;;;;;9.13;5.32;;;;;;;4.72;100.00;102224.69;10358143;28;20088;-74
2023/04/07 22:01:56;;;;;;;11.02;5.40;;;;;;;4.69;100.00;102233.22;10358316;28;20141;-70
2023/04/07 22:06:57;;;;;;;8.32;5.10;;;;;;;4.61;100.00;102237.72;10328018;28;20135;-77
2023/04/07 22:11:57;;;;;;;27.65;16.88;;;;;;;4.54;100.00;102241.34;10351830;28;20049;-75
2023/04/07 22:16:58;;;;;;;10.90;7.07;;;;;;;4.33;100.00;102228.34;10328271;28;20034;-77
2023/04/07 22:21:58;;;;;;;9.55;5.22;;;;;;;4.35;100.00;102256.28;10373007;28;20834;-77
2023/04/07 22:27:00;;;;;;;8.98;5.43;;;;;;;3.98;100.00;102220.50;10374106;28;20049;-78
2023/04/07 22:32:00;;;;;;;9.13;5.18;;;;;;;4.11;100.00;102246.34;10374595;28;20069;-78
2023/04/07 22:37:01;;;;;;;10.45;5.78;;;;;;;4.15;100.00;102258.59;10371368;28;20399;-78
2023/04/07 22:42:01;;;;;;;10.38;5.80;;;;;;;4.11;100.00;102262.69;10345759;28;20061;-78
2023/04/07 22:47:02;;;;;;;10.63;6.03;;;;;;;4.09;100.00;102271.03;10371303;28;20042;-78